sensor_id;sensor_type;location;lat;lon;timestamp;pressure;altitude;pressure_sealevel;temperature;humidity
60820;BME280;46641;48.904;9.126;2023-11-19T00:01:16;98507.88;;;12.97;64.73
60820;BME280;46641;48.904;9.126;2023-11-19T00:06:06;98486.03;;;12.97;64.75
60820;BME280;46641;48.904;9.126;2023-11-19T00:10:56;98459.78;;;12.97;64.78
60820;BME280;46641;48.904;9.126;2023-11-19T00:15:47;98461.22;;;12.99;64.62
60820;BME280;46641;48.904;9.126;2023-11-19T00:20:37;98455.97;;;12.99;64.84
60820;BME280;46641;48.904;9.126;2023-11-19T00:25:27;98461.22;;;12.99;64.69
60820;BME280;46641;48.904;9.126;2023-11-19T00:30:18;98453.34;;;12.99;64.99
60820;BME280;46641;48.904;9.126;2023-11-19T00:35:08;98448.09;;;12.99;64.65
60820;BME280;46641;48.904;9.126;2023-11-19T00:40:04;98451.38;;;13.01;64.91
60820;BME280;46641;48.904;9.126;2023-11-19T00:44:55;98447.75;;;13.02;64.95
60820;BME280;46641;48.904;9.126;2023-11-19T00:49:48;98445.13;;;13.02;65.10
60820;BME280;46641;48.904;9.126;2023-11-19T00:54:38;98437.25;;;13.02;64.90
60820;BME280;46641;48.904;9.126;2023-11-19T00:59:29;98426.59;;;13.04;64.77
60820;BME280;46641;48.904;9.126;2023-11-19T01:04:19;98436.09;;;13.05;64.73
60820;BME280;46641;48.904;9.126;2023-11-19T01:09:09;98429.03;;;13.05;65.06
60820;BME280;46641;48.904;9.126;2023-11-19T01:14:00;98409.69;;;13.06;64.97
60820;BME280;46641;48.904;9.126;2023-11-19T01:18:50;98421.84;;;13.07;64.59
60820;BME280;46641;48.904;9.126;2023-11-19T01:23:41;98415.56;;;13.08;64.90
60820;BME280;46641;48.904;9.126;2023-11-19T01:28:34;98415.56;;;13.08;64.78
60820;BME280;46641;48.904;9.126;2023-11-19T01:33:24;98414.44;;;13.11;64.96
60820;BME280;46641;48.904;9.126;2023-11-19T01:38:15;98404.75;;;13.12;64.96
60820;BME280;46641;48.904;9.126;2023-11-19T01:43:05;98410.00;;;13.12;64.64
60820;BME280;46641;48.904;9.126;2023-11-19T01:47:55;98408.03;;;13.14;65.02
60820;BME280;46641;48.904;9.126;2023-11-19T01:52:46;98402.78;;;13.14;64.89
60820;BME280;46641;48.904;9.126;2023-11-19T01:57:36;98409.66;;;13.15;65.03
60820;BME280;46641;48.904;9.126;2023-11-19T02:02:29;98403.41;;;13.16;64.84
60820;BME280;46641;48.904;9.126;2023-11-19T02:07:20;98391.13;;;13.16;64.85
60820;BME280;46641;48.904;9.126;2023-11-19T02:12:10;98398.16;;;13.16;64.87
60820;BME280;46641;48.904;9.126;2023-11-19T02:17:04;98397.19;;;13.17;64.86
60820;BME280;46641;48.904;9.126;2023-11-19T02:21:54;98396.00;;;13.19;64.89
60820;BME280;46641;48.904;9.126;2023-11-19T02:26:54;98392.41;;;13.20;65.11
60820;BME280;46641;48.904;9.126;2023-11-19T02:31:47;98386.16;;;13.21;65.04
60820;BME280;46641;48.904;9.126;2023-11-19T02:36:37;98387.66;;;13.24;65.01
60820;BME280;46641;48.904;9.126;2023-11-19T02:41:28;98389.31;;;13.25;65.13
60820;BME280;46641;48.904;9.126;2023-11-19T02:46:18;98383.91;;;13.26;64.88
60820;BME280;46641;48.904;9.126;2023-11-19T02:51:09;98392.59;;;13.27;65.11
60820;BME280;46641;48.904;9.126;2023-11-19T02:55:59;98395.72;;;13.30;64.94
60820;BME280;46641;48.904;9.126;2023-11-19T03:01:02;98408.03;;;13.30;65.00
60820;BME280;46641;48.904;9.126;2023-11-19T03:06:02;98412.28;;;13.31;64.96
60820;BME280;46641;48.904;9.126;2023-11-19T03:10:55;98390.28;;;13.32;65.01
60820;BME280;46641;48.904;9.126;2023-11-19T03:15:45;98399.63;;;13.35;65.02
60820;BME280;46641;48.904;9.126;2023-11-19T03:20:36;98397.66;;;13.37;64.80
60820;BME280;46641;48.904;9.126;2023-11-19T03:25:26;98387.97;;;13.37;64.68
60820;BME280;46641;48.904;9.126;2023-11-19T03:30:26;98379.75;;;13.32;64.95
60820;BME280;46641;48.904;9.126;2023-11-19T03:35:16;98374.34;;;13.33;65.03
60820;BME280;46641;48.904;9.126;2023-11-19T03:40:07;98371.53;;;13.35;65.13
60820;BME280;46641;48.904;9.126;2023-11-19T03:44:58;98356.44;;;13.37;65.06
60820;BME280;46641;48.904;9.126;2023-11-19T03:49:48;98361.50;;;13.39;64.87
60820;BME280;46641;48.904;9.126;2023-11-19T03:54:39;98345.56;;;13.40;64.92
60820;BME280;46641;48.904;9.126;2023-11-19T03:59:29;98340.97;;;13.42;65.07
60820;BME280;46641;48.904;9.126;2023-11-19T04:04:19;98335.72;;;13.42;65.08
60820;BME280;46641;48.904;9.126;2023-11-19T04:09:10;98347.06;;;13.43;64.98
60820;BME280;46641;48.904;9.126;2023-11-19T04:14:00;98356.75;;;13.42;65.14
60820;BME280;46641;48.904;9.126;2023-11-19T04:18:50;98348.69;;;13.44;64.88
60820;BME280;46641;48.904;9.126;2023-11-19T04:23:40;98350.97;;;13.47;65.00
60820;BME280;46641;48.904;9.126;2023-11-19T04:28:31;98351.44;;;13.50;65.03
60820;BME280;46641;48.904;9.126;2023-11-19T04:33:21;98347.19;;;13.49;64.61
60820;BME280;46641;48.904;9.126;2023-11-19T04:38:11;98342.75;;;13.50;64.83
60820;BME280;46641;48.904;9.126;2023-11-19T04:43:01;98343.56;;;13.50;64.41
60820;BME280;46641;48.904;9.126;2023-11-19T04:47:52;98344.22;;;13.52;64.88
60820;BME280;46641;48.904;9.126;2023-11-19T04:52:42;98344.84;;;13.54;64.58
60820;BME280;46641;48.904;9.126;2023-11-19T04:57:35;98344.84;;;13.54;64.60
60820;BME280;46641;48.904;9.126;2023-11-19T05:02:25;98340.25;;;13.56;64.82
60820;BME280;46641;48.904;9.126;2023-11-19T05:07:15;98339.25;;;13.57;64.80
60820;BME280;46641;48.904;9.126;2023-11-19T05:12:06;98343.53;;;13.59;64.82
60820;BME280;46641;48.904;9.126;2023-11-19T05:17:00;98347.81;;;13.60;64.72
60820;BME280;46641;48.904;9.126;2023-11-19T05:21:50;98357.31;;;13.61;64.84
60820;BME280;46641;48.904;9.126;2023-11-19T05:26:42;98354.69;;;13.61;64.76
60820;BME280;46641;48.904;9.126;2023-11-19T05:31:32;98350.44;;;13.60;64.77
60820;BME280;46641;48.904;9.126;2023-11-19T05:36:23;98353.72;;;13.62;65.28
60820;BME280;46641;48.904;9.126;2023-11-19T05:41:13;98334.31;;;13.63;64.88
60820;BME280;46641;48.904;9.126;2023-11-19T05:46:03;98323.97;;;13.61;64.89
60820;BME280;46641;48.904;9.126;2023-11-19T05:50:54;98324.81;;;13.62;64.79
60820;BME280;46641;48.904;9.126;2023-11-19T05:55:45;98316.53;;;13.65;64.61
60820;BME280;46641;48.904;9.126;2023-11-19T06:00:40;98335.59;;;13.67;64.71
60820;BME280;46641;48.904;9.126;2023-11-19T06:05:30;98347.41;;;13.71;64.34
60820;BME280;46641;48.904;9.126;2023-11-19T06:10:20;98355.97;;;13.73;64.74
60820;BME280;46641;48.904;9.126;2023-11-19T06:15:11;98353.34;;;13.73;64.61
60820;BME280;46641;48.904;9.126;2023-11-19T06:20:01;98366.16;;;13.76;64.43
60820;BME280;46641;48.904;9.126;2023-11-19T06:24:53;98358.25;;;13.76;64.58
60820;BME280;46641;48.904;9.126;2023-11-19T06:29:43;98352.00;;;13.77;64.65
60820;BME280;46641;48.904;9.126;2023-11-19T06:34:34;98358.91;;;13.78;64.70
60820;BME280;46641;48.904;9.126;2023-11-19T06:39:24;98360.53;;;13.79;64.56
60820;BME280;46641;48.904;9.126;2023-11-19T06:44:14;98364.47;;;13.83;64.54
60820;BME280;46641;48.904;9.126;2023-11-19T06:49:05;98367.09;;;13.83;64.53
60820;BME280;46641;48.904;9.126;2023-11-19T06:53:55;98358.72;;;13.79;64.56
60820;BME280;46641;48.904;9.126;2023-11-19T06:58:45;98351.31;;;13.83;64.47
60820;BME280;46641;48.904;9.126;2023-11-19T07:03:36;98348.69;;;13.83;64.61
60820;BME280;46641;48.904;9.126;2023-11-19T07:08:26;98348.34;;;13.86;64.53
60820;BME280;46641;48.904;9.126;2023-11-19T07:13:17;98376.28;;;13.87;64.46
60820;BME280;46641;48.904;9.126;2023-11-19T07:18:07;98391.09;;;13.88;64.40
60820;BME280;46641;48.904;9.126;2023-11-19T07:22:57;98391.91;;;13.89;64.51
60820;BME280;46641;48.904;9.126;2023-11-19T07:27:47;98398.66;;;13.91;64.55
60820;BME280;46641;48.904;9.126;2023-11-19T07:32:38;98401.28;;;13.91;64.72
60820;BME280;46641;48.904;9.126;2023-11-19T07:37:29;98406.19;;;13.94;64.56
60820;BME280;46641;48.904;9.126;2023-11-19T07:42:19;98405.84;;;13.97;64.33
60820;BME280;46641;48.904;9.126;2023-11-19T07:47:10;98400.75;;;13.96;64.52
60820;BME280;46641;48.904;9.126;2023-11-19T07:52:00;98406.66;;;13.98;64.40
60820;BME280;46641;48.904;9.126;2023-11-19T07:56:50;98404.19;;;13.96;64.40
60820;BME280;46641;48.904;9.126;2023-11-19T08:01:41;98412.75;;;13.98;64.54
60820;BME280;46641;48.904;9.126;2023-11-19T08:06:31;98415.38;;;13.98;64.77
60820;BME280;46641;48.904;9.126;2023-11-19T08:11:21;98409.94;;;14.00;64.19
60820;BME280;46641;48.904;9.126;2023-11-19T08:16:12;98394.34;;;13.98;64.54
60820;BME280;46641;48.904;9.126;2023-11-19T08:21:02;98396.97;;;13.98;64.54
60820;BME280;46641;48.904;9.126;2023-11-19T08:25:54;98408.13;;;14.00;64.77
60820;BME280;46641;48.904;9.126;2023-11-19T08:30:45;98416.19;;;13.99;64.30
60820;BME280;46641;48.904;9.126;2023-11-19T08:35:36;98418.34;;;13.95;64.79
60820;BME280;46641;48.904;9.126;2023-11-19T08:40:26;98411.47;;;13.94;64.81
60820;BME280;46641;48.904;9.126;2023-11-19T08:45:16;98414.56;;;13.98;64.72
60820;BME280;46641;48.904;9.126;2023-11-19T08:50:07;98405.47;;;14.00;64.61
60820;BME280;46641;48.904;9.126;2023-11-19T08:54:58;98401.69;;;14.03;64.67
60820;BME280;46641;48.904;9.126;2023-11-19T08:59:48;98405.47;;;14.09;64.47
60820;BME280;46641;48.904;9.126;2023-11-19T09:04:39;98413.59;;;14.22;64.17
60820;BME280;46641;48.904;9.126;2023-11-19T09:09:29;98426.03;;;14.36;63.83
60820;BME280;46641;48.904;9.126;2023-11-19T09:14:20;98426.81;;;14.45;65.07
60820;BME280;46641;48.904;9.126;2023-11-19T09:19:14;98421.69;;;14.52;64.17
60820;BME280;46641;48.904;9.126;2023-11-19T09:24:04;98434.50;;;14.55;65.10
60820;BME280;46641;48.904;9.126;2023-11-19T09:28:55;98436.31;;;14.54;65.49
60820;BME280;46641;48.904;9.126;2023-11-19T09:33:45;98441.97;;;14.43;65.92
60820;BME280;46641;48.904;9.126;2023-11-19T09:38:36;98432.94;;;14.37;66.13
60820;BME280;46641;48.904;9.126;2023-11-19T09:43:29;98429.63;;;14.43;66.50
60820;BME280;46641;48.904;9.126;2023-11-19T09:48:19;98441.72;;;14.61;66.87
60820;BME280;46641;48.904;9.126;2023-11-19T09:53:10;98447.06;;;14.76;66.22
60820;BME280;46641;48.904;9.126;2023-11-19T09:58:01;98438.25;;;14.83;65.50
60820;BME280;46641;48.904;9.126;2023-11-19T10:02:51;98431.84;;;14.86;65.57
60820;BME280;46641;48.904;9.126;2023-11-19T10:07:42;98438.19;;;14.91;64.72
60820;BME280;46641;48.904;9.126;2023-11-19T10:12:33;98429.31;;;14.92;65.18
60820;BME280;46641;48.904;9.126;2023-11-19T10:17:33;98430.28;;;14.91;65.56
60820;BME280;46641;48.904;9.126;2023-11-19T10:22:23;98430.28;;;14.91;65.18
60820;BME280;46641;48.904;9.126;2023-11-19T10:27:15;98432.22;;;14.98;65.01
60820;BME280;46641;48.904;9.126;2023-11-19T10:32:06;98431.84;;;15.01;64.63
60820;BME280;46641;48.904;9.126;2023-11-19T10:36:56;98427.28;;;14.94;64.67
60820;BME280;46641;48.904;9.126;2023-11-19T10:41:46;98420.59;;;15.07;64.76
60820;BME280;46641;48.904;9.126;2023-11-19T10:46:41;98418.72;;;15.15;64.13
60820;BME280;46641;48.904;9.126;2023-11-19T10:51:32;98425.81;;;15.15;63.76
60820;BME280;46641;48.904;9.126;2023-11-19T10:56:25;98431.72;;;15.17;64.17
60820;BME280;46641;48.904;9.126;2023-11-19T11:01:23;98436.81;;;15.18;63.89
60820;BME280;46641;48.904;9.126;2023-11-19T11:06:16;98416.56;;;15.19;63.82
60820;BME280;46641;48.904;9.126;2023-11-19T11:11:07;98414.22;;;15.24;63.40
60820;BME280;46641;48.904;9.126;2023-11-19T11:16:00;98408.09;;;15.24;62.99
60820;BME280;46641;48.904;9.126;2023-11-19T11:20:54;98403.06;;;15.14;63.16
60820;BME280;46641;48.904;9.126;2023-11-19T11:31:26;98397.03;;;15.28;63.48
60820;BME280;46641;48.904;9.126;2023-11-19T11:36:22;98391.28;;;15.39;63.13
60820;BME280;46641;48.904;9.126;2023-11-19T11:41:22;98386.00;;;15.39;63.06
60820;BME280;46641;48.904;9.126;2023-11-19T11:51:58;98372.00;;;15.39;63.02
60820;BME280;46641;48.904;9.126;2023-11-19T11:57:09;98360.38;;;15.48;63.11
60820;BME280;46641;48.904;9.126;2023-11-19T12:02:00;98366.31;;;15.50;62.38
60820;BME280;46641;48.904;9.126;2023-11-19T12:07:12;98370.00;;;15.56;62.65
60820;BME280;46641;48.904;9.126;2023-11-19T12:12:11;98369.66;;;15.59;62.56
60820;BME280;46641;48.904;9.126;2023-11-19T12:17:35;98370.28;;;15.61;62.77
60820;BME280;46641;48.904;9.126;2023-11-19T12:22:26;98353.56;;;15.69;62.80
60820;BME280;46641;48.904;9.126;2023-11-19T12:27:17;98349.19;;;15.76;61.55
60820;BME280;46641;48.904;9.126;2023-11-19T12:32:07;98335.81;;;15.77;61.27
60820;BME280;46641;48.904;9.126;2023-11-19T12:36:58;98334.13;;;15.70;61.09
60820;BME280;46641;48.904;9.126;2023-11-19T12:41:49;98325.19;;;15.71;60.76
60820;BME280;46641;48.904;9.126;2023-11-19T12:46:40;98309.34;;;15.71;60.73
60820;BME280;46641;48.904;9.126;2023-11-19T12:51:31;98312.69;;;15.79;60.82
60820;BME280;46641;48.904;9.126;2023-11-19T12:56:22;98325.44;;;15.76;60.56
60820;BME280;46641;48.904;9.126;2023-11-19T13:01:17;98315.06;;;15.74;60.48
60820;BME280;46641;48.904;9.126;2023-11-19T13:06:09;98320.44;;;15.81;60.82
60820;BME280;46641;48.904;9.126;2023-11-19T13:11:03;98329.06;;;15.89;60.77
60820;BME280;46641;48.904;9.126;2023-11-19T13:16:01;98320.41;;;15.96;59.93
60820;BME280;46641;48.904;9.126;2023-11-19T13:20:51;98305.56;;;15.95;59.86
60820;BME280;46641;48.904;9.126;2023-11-19T13:25:42;98297.25;;;15.98;60.06
60820;BME280;46641;48.904;9.126;2023-11-19T13:30:33;98294.09;;;16.02;59.32
60820;BME280;46641;48.904;9.126;2023-11-19T13:35:24;98292.69;;;16.06;59.02
60820;BME280;46641;48.904;9.126;2023-11-19T13:40:15;98291.94;;;16.12;58.83
60820;BME280;46641;48.904;9.126;2023-11-19T13:45:05;98284.63;;;16.15;59.11
60820;BME280;46641;48.904;9.126;2023-11-19T13:50:00;98278.97;;;16.18;58.71
60820;BME280;46641;48.904;9.126;2023-11-19T13:54:51;98276.53;;;16.16;58.43
60820;BME280;46641;48.904;9.126;2023-11-19T13:59:41;98282.38;;;16.11;58.91
60820;BME280;46641;48.904;9.126;2023-11-19T14:04:31;98278.53;;;16.14;58.26
60820;BME280;46641;48.904;9.126;2023-11-19T14:09:22;98279.41;;;16.21;58.87
60820;BME280;46641;48.904;9.126;2023-11-19T14:14:12;98268.84;;;16.21;57.40
60820;BME280;46641;48.904;9.126;2023-11-19T14:19:02;98264.31;;;16.15;57.21
60820;BME280;46641;48.904;9.126;2023-11-19T14:23:53;98257.69;;;16.19;56.46
60820;BME280;46641;48.904;9.126;2023-11-19T14:28:43;98259.69;;;16.17;57.13
60820;BME280;46641;48.904;9.126;2023-11-19T14:33:33;98253.22;;;16.20;57.42
60820;BME280;46641;48.904;9.126;2023-11-19T14:38:25;98261.94;;;16.20;56.88
60820;BME280;46641;48.904;9.126;2023-11-19T14:43:16;98266.03;;;16.23;57.26
60820;BME280;46641;48.904;9.126;2023-11-19T14:48:06;98267.50;;;16.25;56.66
60820;BME280;46641;48.904;9.126;2023-11-19T14:52:57;98271.75;;;16.26;56.94
60820;BME280;46641;48.904;9.126;2023-11-19T14:57:47;98272.00;;;16.31;56.89
60820;BME280;46641;48.904;9.126;2023-11-19T15:02:40;98272.25;;;16.36;56.95
60820;BME280;46641;48.904;9.126;2023-11-19T15:07:31;98275.31;;;16.40;56.93
60820;BME280;46641;48.904;9.126;2023-11-19T15:12:21;98282.44;;;16.40;56.81
60820;BME280;46641;48.904;9.126;2023-11-19T15:17:12;98290.34;;;16.40;57.34
60820;BME280;46641;48.904;9.126;2023-11-19T15:22:03;98300.28;;;16.38;57.19
60820;BME280;46641;48.904;9.126;2023-11-19T15:26:55;98293.38;;;16.36;57.49
60820;BME280;46641;48.904;9.126;2023-11-19T15:31:46;98308.59;;;16.34;57.65
60820;BME280;46641;48.904;9.126;2023-11-19T15:36:36;98307.16;;;16.32;57.89
60820;BME280;46641;48.904;9.126;2023-11-19T15:41:27;98300.88;;;16.33;58.00
60820;BME280;46641;48.904;9.126;2023-11-19T15:46:17;98293.75;;;16.33;57.61
60820;BME280;46641;48.904;9.126;2023-11-19T15:51:08;98290.09;;;16.34;58.49
60820;BME280;46641;48.904;9.126;2023-11-19T15:55:59;98283.19;;;16.33;58.62
60820;BME280;46641;48.904;9.126;2023-11-19T16:00:49;98281.56;;;16.32;58.63
60820;BME280;46641;48.904;9.126;2023-11-19T16:05:40;98274.66;;;16.31;58.89
60820;BME280;46641;48.904;9.126;2023-11-19T16:10:31;98282.56;;;16.31;59.29
60820;BME280;46641;48.904;9.126;2023-11-19T16:15:21;98286.41;;;16.29;59.32
60820;BME280;46641;48.904;9.126;2023-11-19T16:20:11;98295.97;;;16.30;59.51
60820;BME280;46641;48.904;9.126;2023-11-19T16:25:02;98299.63;;;16.29;59.17
60820;BME280;46641;48.904;9.126;2023-11-19T16:29:52;98289.44;;;16.26;59.17
60820;BME280;46641;48.904;9.126;2023-11-19T16:34:42;98291.25;;;16.25;59.47
60820;BME280;46641;48.904;9.126;2023-11-19T16:39:33;98301.81;;;16.25;59.60
60820;BME280;46641;48.904;9.126;2023-11-19T16:44:23;98308.91;;;16.25;59.37
60820;BME280;46641;48.904;9.126;2023-11-19T16:49:14;98307.47;;;16.22;59.29
60820;BME280;46641;48.904;9.126;2023-11-19T16:54:04;98325.75;;;16.24;59.62
60820;BME280;46641;48.904;9.126;2023-11-19T16:58:54;98323.13;;;16.24;59.11
60820;BME280;46641;48.904;9.126;2023-11-19T17:03:44;98324.13;;;16.23;59.54
60820;BME280;46641;48.904;9.126;2023-11-19T17:08:36;98324.50;;;16.20;59.69
60820;BME280;46641;48.904;9.126;2023-11-19T17:13:27;98332.59;;;16.18;59.78
60820;BME280;46641;48.904;9.126;2023-11-19T17:18:18;98340.09;;;16.15;59.65
60820;BME280;46641;48.904;9.126;2023-11-19T17:23:09;98344.38;;;16.16;59.90
60820;BME280;46641;48.904;9.126;2023-11-19T17:27:59;98340.28;;;16.13;59.81
60820;BME280;46641;48.904;9.126;2023-11-19T17:32:49;98330.91;;;16.10;59.88
60820;BME280;46641;48.904;9.126;2023-11-19T17:37:40;98340.00;;;16.08;59.86
60820;BME280;46641;48.904;9.126;2023-11-19T17:42:31;98335.09;;;16.05;59.77
60820;BME280;46641;48.904;9.126;2023-11-19T17:47:21;98336.31;;;16.02;60.11
60820;BME280;46641;48.904;9.126;2023-11-19T17:52:12;98339.13;;;16.01;60.02
60820;BME280;46641;48.904;9.126;2023-11-19T17:57:03;98347.41;;;15.98;59.81
60820;BME280;46641;48.904;9.126;2023-11-19T18:01:54;98345.16;;;15.95;59.71
60820;BME280;46641;48.904;9.126;2023-11-19T18:06:46;98341.25;;;15.91;59.54
60820;BME280;46641;48.904;9.126;2023-11-19T18:11:36;98334.50;;;15.88;59.35
60820;BME280;46641;48.904;9.126;2023-11-19T18:16:27;98341.53;;;15.81;58.52
60820;BME280;46641;48.904;9.126;2023-11-19T18:21:17;98355.72;;;15.65;58.20
60820;BME280;46641;48.904;9.126;2023-11-19T18:26:07;98346.91;;;15.58;58.68
60820;BME280;46641;48.904;9.126;2023-11-19T18:30:58;98364.00;;;15.62;58.32
60820;BME280;46641;48.904;9.126;2023-11-19T18:35:48;98363.19;;;15.61;59.30
60820;BME280;46641;48.904;9.126;2023-11-19T18:40:39;98383.94;;;15.64;59.85
60820;BME280;46641;48.904;9.126;2023-11-19T18:45:29;98370.81;;;15.56;60.68
60820;BME280;46641;48.904;9.126;2023-11-19T18:50:20;98368.53;;;15.53;60.81
60820;BME280;46641;48.904;9.126;2023-11-19T18:55:10;98371.47;;;15.43;61.42
60820;BME280;46641;48.904;9.126;2023-11-19T19:00:01;98393.31;;;15.37;61.97
60820;BME280;46641;48.904;9.126;2023-11-19T19:04:56;98389.13;;;15.28;62.48
60820;BME280;46641;48.904;9.126;2023-11-19T19:09:47;98376.00;;;15.20;62.75
60820;BME280;46641;48.904;9.126;2023-11-19T19:14:42;98392.16;;;15.17;63.16
60820;BME280;46641;48.904;9.126;2023-11-19T19:19:34;98388.91;;;15.15;63.18
60820;BME280;46641;48.904;9.126;2023-11-19T19:24:24;98387.00;;;15.24;62.84
60820;BME280;46641;48.904;9.126;2023-11-19T19:29:14;98389.63;;;15.24;62.93
60820;BME280;46641;48.904;9.126;2023-11-19T19:34:05;98397.44;;;15.17;62.88
60820;BME280;46641;48.904;9.126;2023-11-19T19:38:55;98406.97;;;15.03;62.69
60820;BME280;46641;48.904;9.126;2023-11-19T19:43:46;98393.34;;;15.00;62.84
60820;BME280;46641;48.904;9.126;2023-11-19T19:48:36;98399.72;;;15.05;62.73
60820;BME280;46641;48.904;9.126;2023-11-19T19:53:27;98399.09;;;15.18;61.86
60820;BME280;46641;48.904;9.126;2023-11-19T19:58:17;98395.47;;;15.19;61.67
60820;BME280;46641;48.904;9.126;2023-11-19T20:03:08;98396.38;;;15.26;61.84
60820;BME280;46641;48.904;9.126;2023-11-19T20:07:58;98400.94;;;15.32;60.82
60820;BME280;46641;48.904;9.126;2023-11-19T20:12:49;98398.25;;;15.17;61.07
60820;BME280;46641;48.904;9.126;2023-11-19T20:17:39;98405.59;;;14.92;60.76
60820;BME280;46641;48.904;9.126;2023-11-19T20:22:30;98401.38;;;14.83;60.67
60820;BME280;46641;48.904;9.126;2023-11-19T20:27:21;98407.34;;;14.77;60.53
60820;BME280;46641;48.904;9.126;2023-11-19T20:32:11;98409.63;;;14.80;60.69
60820;BME280;46641;48.904;9.126;2023-11-19T20:37:01;98419.38;;;14.94;61.10
60820;BME280;46641;48.904;9.126;2023-11-19T20:41:52;98416.69;;;15.03;60.59
60820;BME280;46641;48.904;9.126;2023-11-19T20:46:42;98403.16;;;15.06;60.29
60820;BME280;46641;48.904;9.126;2023-11-19T20:51:32;98400.53;;;15.06;61.03
60820;BME280;46641;48.904;9.126;2023-11-19T20:56:23;98421.63;;;15.06;59.87
60820;BME280;46641;48.904;9.126;2023-11-19T21:01:14;98411.94;;;14.98;60.70
60820;BME280;46641;48.904;9.126;2023-11-19T21:06:05;98416.84;;;15.01;60.61
60820;BME280;46641;48.904;9.126;2023-11-19T21:10:55;98415.88;;;15.02;59.08
60820;BME280;46641;48.904;9.126;2023-11-19T21:15:45;98391.50;;;14.85;59.69
60820;BME280;46641;48.904;9.126;2023-11-19T21:20:36;98400.16;;;14.71;59.85
60820;BME280;46641;48.904;9.126;2023-11-19T21:25:26;98402.31;;;14.67;60.29
60820;BME280;46641;48.904;9.126;2023-11-19T21:30:16;98401.91;;;14.79;60.03
60820;BME280;46641;48.904;9.126;2023-11-19T21:35:08;98406.00;;;14.81;60.01
60820;BME280;46641;48.904;9.126;2023-11-19T21:39:58;98407.09;;;14.87;60.47
60820;BME280;46641;48.904;9.126;2023-11-19T21:44:50;98421.75;;;14.89;60.47
60820;BME280;46641;48.904;9.126;2023-11-19T21:49:40;98431.03;;;14.85;59.86
60820;BME280;46641;48.904;9.126;2023-11-19T21:54:30;98430.66;;;14.88;59.91
60820;BME280;46641;48.904;9.126;2023-11-19T21:59:21;98420.75;;;14.90;60.14
60820;BME280;46641;48.904;9.126;2023-11-19T22:04:11;98421.22;;;14.94;60.31
60820;BME280;46641;48.904;9.126;2023-11-19T22:09:01;98416.25;;;14.99;60.71
60820;BME280;46641;48.904;9.126;2023-11-19T22:13:52;98420.00;;;15.05;60.60
60820;BME280;46641;48.904;9.126;2023-11-19T22:18:42;98431.16;;;15.07;61.00
60820;BME280;46641;48.904;9.126;2023-11-19T22:23:33;98431.16;;;15.07;61.11
60820;BME280;46641;48.904;9.126;2023-11-19T22:28:24;98426.69;;;15.07;61.05
60820;BME280;46641;48.904;9.126;2023-11-19T22:33:15;98419.59;;;15.08;60.86
60820;BME280;46641;48.904;9.126;2023-11-19T22:38:05;98420.44;;;15.08;60.21
60820;BME280;46641;48.904;9.126;2023-11-19T22:42:56;98419.69;;;15.00;60.69
60820;BME280;46641;48.904;9.126;2023-11-19T22:47:46;98421.03;;;14.95;60.69
60820;BME280;46641;48.904;9.126;2023-11-19T22:52:39;98424.31;;;14.98;60.13
60820;BME280;46641;48.904;9.126;2023-11-19T22:57:30;98405.94;;;14.89;58.53
60820;BME280;46641;48.904;9.126;2023-11-19T23:02:20;98401.84;;;14.87;59.90
60820;BME280;46641;48.904;9.126;2023-11-19T23:07:10;98394.94;;;14.86;60.19
60820;BME280;46641;48.904;9.126;2023-11-19T23:12:01;98390.47;;;14.86;59.71
60820;BME280;46641;48.904;9.126;2023-11-19T23:16:51;98392.81;;;14.81;59.90
60820;BME280;46641;48.904;9.126;2023-11-19T23:21:41;98390.72;;;14.77;60.50
60820;BME280;46641;48.904;9.126;2023-11-19T23:26:33;98403.72;;;14.78;60.57
60820;BME280;46641;48.904;9.126;2023-11-19T23:31:24;98397.47;;;14.79;60.39
60820;BME280;46641;48.904;9.126;2023-11-19T23:36:14;98398.44;;;14.78;60.91
60820;BME280;46641;48.904;9.126;2023-11-19T23:41:06;98402.38;;;14.82;60.83
60820;BME280;46641;48.904;9.126;2023-11-19T23:45:56;98398.56;;;14.85;60.39
60820;BME280;46641;48.904;9.126;2023-11-19T23:50:47;98404.47;;;14.87;61.09
60820;BME280;46641;48.904;9.126;2023-11-19T23:55:40;98399.41;;;14.85;61.14
